Time;durP1;ratioP1;P1;durP2;ratioP2;P2;SDS_P1;SDS_P2;PMS_P1;PMS_P2;Temp;Humidity;BMP_temperature;BMP_pressure;BME280_temperature;BME280_humidity;BME280_pressure;Samples;Min_cycle;Max_cycle;Signal;HPM_P1;HPM_P2
2022/06/12 00:01:55;;;;;;;9.70;6.73;;;17.60;99.90;;;;;;5072277;28;21120;-36
2022/06/12 00:04:20;;;;;;;7.10;6.40;;;17.60;99.90;;;;;;5071969;28;20651;-36
2022/06/12 00:06:48;;;;;;;6.83;6.13;;;17.50;99.90;;;;;;5071390;28;20431;-36
2022/06/12 00:09:14;;;;;;;7.50;6.10;;;17.60;99.90;;;;;;5071966;28;20193;-36
2022/06/12 00:11:41;;;;;;;6.70;6.10;;;17.50;99.90;;;;;;5070638;28;20439;-37
2022/06/12 00:14:06;;;;;;;8.60;5.73;;;17.50;99.90;;;;;;5071799;28;20469;-36
2022/06/12 00:16:34;;;;;;;6.40;5.60;;;17.40;99.90;;;;;;5070607;28;20432;-36
2022/06/12 00:19:01;;;;;;;9.43;6.97;;;17.40;99.90;;;;;;5071564;28;20185;-36
2022/06/12 00:21:30;;;;;;;6.30;5.33;;;17.30;99.90;;;;;;5067555;28;20974;-36
2022/06/12 00:24:00;;;;;;;8.70;6.70;;;17.30;99.90;;;;;;5070731;28;20431;-36
2022/06/12 00:26:37;;;;;;;7.00;6.30;;;17.30;99.90;;;;;;5071726;28;20423;-36
2022/06/12 00:29:10;;;;;;;5.83;5.33;;;17.30;99.90;;;;;;5054251;28;20909;-36
2022/06/12 00:31:40;;;;;;;7.93;6.43;;;17.20;99.90;;;;;;5065294;28;20854;-36
2022/06/12 00:34:06;;;;;;;6.70;6.00;;;17.10;99.90;;;;;;5071527;28;20562;-36
2022/06/12 00:36:33;;;;;;;6.80;6.20;;;17.10;99.90;;;;;;5070932;28;20537;-36
2022/06/12 00:38:58;;;;;;;10.10;6.07;;;17.10;99.90;;;;;;5070205;28;20431;-36
2022/06/12 00:41:25;;;;;;;6.33;5.73;;;17.00;99.90;;;;;;5071614;28;20419;-36
2022/06/12 00:43:52;;;;;;;6.40;5.70;;;17.00;99.90;;;;;;5069748;28;20563;-36
2022/06/12 00:46:35;;;;;;;6.47;5.40;;;17.00;99.90;;;;;;5071352;28;20910;-36
2022/06/12 00:49:06;;;;;;;8.00;6.20;;;17.00;99.90;;;;;;5071176;28;20915;-37
2022/06/12 00:51:32;;;;;;;6.43;5.83;;;17.00;99.90;;;;;;5071241;28;20423;-36
2022/06/12 00:53:59;;;;;;;7.03;5.53;;;17.00;99.90;;;;;;5069638;28;20539;-36
2022/06/12 00:56:31;;;;;;;6.87;5.70;;;17.00;99.90;;;;;;5069172;28;20459;-37
2022/06/12 00:59:02;;;;;;;8.53;4.97;;;17.00;99.90;;;;;;5060023;28;20892;-36
2022/06/12 01:01:34;;;;;;;9.03;6.03;;;17.10;99.90;;;;;;5071250;28;20802;-36
2022/06/12 01:06:47;;;;;;;7.47;4.93;;;17.10;99.90;;;;;;5070096;28;20423;-36
2022/06/12 01:09:22;;;;;;;8.87;6.23;;;17.10;99.90;;;;;;5070704;28;20513;-37
2022/06/12 01:11:50;;;;;;;11.27;5.30;;;17.20;99.90;;;;;;5070862;28;20439;-36
2022/06/12 01:14:21;;;;;;;12.17;4.90;;;17.20;99.90;;;;;;5070425;28;20906;-36
2022/06/12 01:16:48;;;;;;;6.80;4.80;;;17.20;99.90;;;;;;5068927;28;20473;-36
2022/06/12 01:19:29;;;;;;;9.23;5.10;;;17.20;99.90;;;;;;5070492;28;20515;-37
2022/06/12 01:22:00;;;;;;;9.30;5.57;;;17.20;99.90;;;;;;5065918;28;20842;-37
2022/06/12 01:24:54;;;;;;;10.20;5.90;;;17.10;99.90;;;;;;5070538;28;20428;-36
2022/06/12 01:27:43;;;;;;;7.67;5.80;;;17.10;99.90;;;;;;5069911;28;20448;-36
2022/06/12 01:30:11;;;;;;;5.87;5.27;;;17.00;99.90;;;;;;5058476;28;20431;-36
2022/06/12 01:32:53;;;;;;;7.30;4.93;;;16.90;99.90;;;;;;5070692;28;20539;-36
2022/06/12 01:35:46;;;;;;;9.03;5.13;;;16.80;99.90;;;;;;5070346;28;20962;-36
2022/06/12 01:38:35;;;;;;;7.13;5.80;;;16.60;99.90;;;;;;5069227;28;20462;-36
2022/06/12 01:41:10;;;;;;;7.20;5.30;;;16.50;99.90;;;;;;5070462;28;20412;-36
2022/06/12 01:43:43;;;;;;;5.87;5.07;;;16.40;99.90;;;;;;5070392;28;20476;-36
2022/06/12 01:46:27;;;;;;;8.33;5.20;;;16.30;99.90;;;;;;5070279;28;20454;-36
2022/06/12 01:49:14;;;;;;;9.03;6.10;;;16.20;99.90;;;;;;5069581;28;20913;-36
2022/06/12 01:52:06;;;;;;;6.83;5.53;;;16.10;99.90;;;;;;5070249;28;20423;-36
2022/06/12 01:54:36;;;;;;;7.53;5.80;;;16.00;99.90;;;;;;5068616;28;20459;-37
2022/06/12 01:57:05;;;;;;;6.17;5.57;;;15.90;99.90;;;;;;5062481;28;20444;-36
2022/06/12 01:59:38;;;;;;;7.97;4.90;;;15.80;99.90;;;;;;5063785;28;20416;-36
2022/06/12 02:02:14;;;;;;;8.07;5.47;;;15.80;99.90;;;;;;5070123;28;20774;-36
2022/06/12 02:04:47;;;;;;;8.67;5.70;;;15.70;99.90;;;;;;5069975;28;20434;-36
2022/06/12 02:07:21;;;;;;;10.63;5.83;;;15.60;99.90;;;;;;5069153;28;20982;-36
2022/06/12 02:10:01;;;;;;;7.70;5.40;;;15.60;99.90;;;;;;5069960;28;21001;-36
2022/06/12 02:15:32;;;;;;;9.27;5.10;;;15.50;99.90;;;;;;5069811;28;21016;-36
2022/06/12 02:18:14;;;;;;;10.27;5.60;;;15.50;99.90;;;;;;5069534;28;20427;-36
2022/06/12 02:20:47;;;;;;;6.73;5.40;;;15.40;99.90;;;;;;5069685;28;20419;-36
2022/06/12 02:23:24;;;;;;;7.50;5.20;;;15.40;99.90;;;;;;5069965;28;20868;-36
2022/06/12 02:25:54;;;;;;;6.70;4.93;;;15.30;99.90;;;;;;5069579;28;20950;-36
2022/06/12 02:28:26;;;;;;;5.87;5.17;;;15.20;99.90;;;;;;5069174;28;20547;-36
2022/06/12 02:30:57;;;;;;;5.50;4.97;;;15.20;99.90;;;;;;5069624;28;20423;-36
2022/06/12 02:33:24;;;;;;;5.33;4.83;;;15.10;99.90;;;;;;5069834;28;20425;-36
2022/06/12 02:35:56;;;;;;;7.83;4.70;;;15.10;99.90;;;;;;5069644;28;20777;-36
2022/06/12 02:38:31;;;;;;;5.60;4.70;;;15.10;99.90;;;;;;5069013;28;20450;-36
2022/06/12 02:41:05;;;;;;;6.30;4.47;;;15.00;99.90;;;;;;5057046;28;21003;-36
2022/06/12 02:43:33;;;;;;;8.20;5.67;;;15.00;99.90;;;;;;5050064;28;21045;-36
2022/06/12 02:46:07;;;;;;;8.30;4.90;;;14.90;99.90;;;;;;5054752;28;20424;-37
2022/06/12 02:48:33;;;;;;;5.90;4.37;;;14.90;99.90;;;;;;5053369;28;20423;-36
2022/06/12 02:51:25;;;;;;;7.07;4.30;;;14.80;99.90;;;;;;5060362;28;20424;-36
2022/06/12 02:54:06;;;;;;;7.87;4.57;;;14.70;99.90;;;;;;5058366;28;20816;-36
2022/06/12 02:56:54;;;;;;;9.67;4.70;;;14.70;99.90;;;;;;5069827;28;20431;-36
2022/06/12 02:59:38;;;;;;;5.70;4.83;;;14.60;99.90;;;;;;5065548;28;20954;-36
2022/06/12 03:02:18;;;;;;;9.87;4.60;;;14.60;99.90;;;;;;5073346;28;20414;-36
2022/06/12 03:05:09;;;;;;;7.73;4.40;;;14.70;99.90;;;;;;5073299;28;20437;-36
2022/06/12 03:07:35;;;;;;;7.97;4.80;;;14.70;99.90;;;;;;5072313;28;20743;-36
2022/06/12 03:10:09;;;;;;;8.60;4.53;;;14.60;99.90;;;;;;5073253;28;20438;-36
2022/06/12 03:12:34;;;;;;;8.50;5.10;;;14.50;99.90;;;;;;5071734;28;20177;-36
2022/06/12 03:15:02;;;;;;;4.90;4.40;;;14.50;99.90;;;;;;5073118;28;20824;-36
2022/06/12 03:17:28;;;;;;;5.10;4.30;;;14.40;99.90;;;;;;5071197;28;20770;-36
2022/06/12 03:19:55;;;;;;;6.80;4.53;;;14.40;99.90;;;;;;5073121;28;20481;-36
2022/06/12 03:22:36;;;;;;;5.80;4.70;;;14.30;99.90;;;;;;5067973;28;20264;-36
2022/06/12 03:25:02;;;;;;;6.50;4.50;;;14.30;99.90;;;;;;5073046;28;20445;-36
2022/06/12 03:27:53;;;;;;;6.13;5.40;;;14.20;99.90;;;;;;5071988;28;20455;-36
2022/06/12 03:30:19;;;;;;;5.43;4.90;;;14.20;99.90;;;;;;5072762;28;20189;-36
2022/06/12 03:33:00;;;;;;;5.90;5.13;;;14.20;99.90;;;;;;5072499;28;20434;-36
2022/06/12 03:36:00;;;;;;;6.83;5.40;;;14.10;99.90;;;;;;5072788;28;20459;-36
2022/06/12 03:38:37;;;;;;;7.40;4.97;;;14.10;99.90;;;;;;5072046;28;20438;-36
2022/06/12 03:41:06;;;;;;;10.13;5.63;;;14.10;99.90;;;;;;5072491;28;20414;-36
2022/06/12 03:43:42;;;;;;;6.03;5.43;;;14.10;99.90;;;;;;5072399;28;20460;-36
2022/06/12 03:46:31;;;;;;;5.57;4.83;;;14.10;99.90;;;;;;5072757;28;20779;-36
2022/06/12 03:48:59;;;;;;;7.00;5.60;;;14.10;99.90;;;;;;5071942;28;20481;-36
2022/06/12 03:51:29;;;;;;;5.60;4.90;;;14.10;99.90;;;;;;5070092;28;20415;-36
2022/06/12 03:54:18;;;;;;;9.33;5.80;;;14.10;99.90;;;;;;5071391;28;20463;-36
2022/06/12 03:59:41;;;;;;;8.30;5.20;;;14.10;99.90;;;;;;5059298;28;20480;-36
2022/06/12 04:02:12;;;;;;;7.13;5.40;;;14.10;99.90;;;;;;5060281;28;20506;-36
2022/06/12 04:04:40;;;;;;;7.23;5.70;;;14.10;99.90;;;;;;5058360;28;20416;-36
2022/06/12 04:07:09;;;;;;;7.00;5.23;;;14.10;99.90;;;;;;5060945;28;20431;-36
2022/06/12 04:09:40;;;;;;;5.63;5.00;;;14.10;99.90;;;;;;5070614;28;20443;-36
2022/06/12 04:12:10;;;;;;;8.70;5.00;;;14.00;99.90;;;;;;5071813;28;20422;-36
2022/06/12 04:14:48;;;;;;;10.27;5.80;;;14.10;99.90;;;;;;5070370;28;21225;-36
2022/06/12 04:17:13;;;;;;;5.20;4.80;;;14.10;99.90;;;;;;5071539;28;20564;-36
2022/06/12 04:22:32;;;;;;;6.30;5.70;;;14.20;99.90;;;;;;5061001;28;20656;-36
2022/06/12 04:25:07;;;;;;;6.93;4.93;;;14.20;99.90;;;;;;5071552;28;20495;-36
2022/06/12 04:27:40;;;;;;;5.77;4.83;;;14.20;99.90;;;;;;5060568;28;20439;-36
2022/06/12 04:30:16;;;;;;;8.17;5.47;;;14.30;99.90;;;;;;5058592;28;21280;-36
2022/06/12 04:32:43;;;;;;;5.60;5.00;;;14.30;99.90;;;;;;5050120;28;20467;-36
2022/06/12 04:35:09;;;;;;;5.23;4.73;;;14.40;99.90;;;;;;5045021;28;20559;-36
2022/06/12 04:37:35;;;;;;;6.93;5.20;;;14.50;99.90;;;;;;5052255;28;20429;-36
2022/06/12 04:40:04;;;;;;;5.50;4.50;;;14.60;99.90;;;;;;5051499;28;20476;-36
2022/06/12 04:42:32;;;;;;;7.90;5.40;;;14.60;99.90;;;;;;5054814;28;20428;-36
2022/06/12 04:45:03;;;;;;;12.93;4.53;;;14.70;99.90;;;;;;5051083;28;20431;-36
2022/06/12 04:47:30;;;;;;;9.70;4.70;;;14.90;99.90;;;;;;5050385;28;20445;-36
2022/06/12 04:49:57;;;;;;;4.63;4.17;;;15.00;99.90;;;;;;5049955;28;21214;-36
2022/06/12 04:52:25;;;;;;;7.30;4.77;;;15.10;99.90;;;;;;5050049;28;20447;-36
2022/06/12 04:54:51;;;;;;;6.50;3.93;;;15.20;99.90;;;;;;5047758;28;20471;-36
2022/06/12 04:57:17;;;;;;;8.13;4.70;;;15.40;99.90;;;;;;5048850;28;20458;-36
2022/06/12 04:59:47;;;;;;;8.13;5.00;;;15.50;99.90;;;;;;5046658;28;20985;-36
2022/06/12 05:02:13;;;;;;;6.90;4.80;;;15.70;99.90;;;;;;5048661;28;20421;-36
2022/06/12 05:04:40;;;;;;;6.83;3.80;;;15.80;99.90;;;;;;5050562;28;20508;-36
2022/06/12 05:07:08;;;;;;;4.97;3.20;;;16.00;99.90;;;;;;5049166;28;20433;-36
2022/06/12 05:09:36;;;;;;;5.07;2.90;;;16.20;99.90;;;;;;5049805;28;20510;-36
2022/06/12 05:12:02;;;;;;;8.13;2.97;;;16.40;99.90;;;;;;5049516;28;20436;-36
2022/06/12 05:14:29;;;;;;;7.43;3.13;;;16.50;99.90;;;;;;5047097;28;20452;-36
2022/06/12 05:17:05;;;;;;;4.90;3.03;;;16.70;99.90;;;;;;5049801;28;20566;-36
2022/06/12 05:19:34;;;;;;;3.10;2.80;;;16.90;99.90;;;;;;5049813;28;20462;-36
2022/06/12 05:22:01;;;;;;;4.20;2.17;;;17.10;99.90;;;;;;5051475;28;20420;-36
2022/06/12 05:24:28;;;;;;;4.50;2.50;;;17.20;99.90;;;;;;5049631;28;20432;-36
2022/06/12 05:26:54;;;;;;;5.87;2.87;;;17.30;99.90;;;;;;5048743;28;20432;-36
2022/06/12 05:29:25;;;;;;;6.33;3.03;;;17.40;99.90;;;;;;5049313;28;20420;-36
2022/06/12 05:31:52;;;;;;;4.77;2.33;;;17.50;99.90;;;;;;5048764;28;20519;-36
2022/06/12 05:34:19;;;;;;;5.30;2.10;;;17.70;99.90;;;;;;5049869;28;20452;-36
2022/06/12 05:36:46;;;;;;;4.40;2.30;;;17.80;99.90;;;;;;5063741;28;20441;-36
2022/06/12 05:39:11;;;;;;;4.07;1.97;;;18.00;99.90;;;;;;5070241;28;20518;-36
2022/06/12 05:41:37;;;;;;;3.87;1.97;;;18.10;99.90;;;;;;5070230;28;20569;-36
2022/06/12 05:44:04;;;;;;;5.37;1.93;;;18.30;99.90;;;;;;5070077;28;20537;-36
2022/06/12 05:46:29;;;;;;;4.30;2.13;;;18.40;99.90;;;;;;5070171;28;20969;-36
2022/06/12 05:48:55;;;;;;;6.10;2.03;;;18.50;99.90;;;;;;5069693;28;20545;-36
2022/06/12 05:51:21;;;;;;;4.07;1.70;;;18.70;99.90;;;;;;5070256;28;20232;-36
2022/06/12 05:53:47;;;;;;;5.23;1.80;;;18.80;99.90;;;;;;5069355;28;20219;-36
2022/06/12 05:56:17;;;;;;;5.90;1.80;;;18.90;99.90;;;;;;5069999;28;20219;-36
2022/06/12 05:58:43;;;;;;;7.13;2.00;;;18.90;99.90;;;;;;5043552;28;20452;-36
2022/06/12 06:01:12;;;;;;;5.63;2.27;;;19.10;99.90;;;;;;5069924;28;20419;-36
2022/06/12 06:03:38;;;;;;;5.00;1.50;;;19.20;99.90;;;;;;5068741;28;21033;-36
2022/06/12 06:06:06;;;;;;;6.40;1.47;;;19.30;99.90;;;;;;5069962;28;20462;-37
2022/06/12 06:08:33;;;;;;;5.53;1.60;;;19.50;99.90;;;;;;5069219;28;20416;-37
2022/06/12 06:10:58;;;;;;;4.83;2.50;;;19.70;99.90;;;;;;5069683;28;20427;-36
2022/06/12 06:13:24;;;;;;;5.20;1.77;;;19.80;99.90;;;;;;5069776;28;20438;-36
2022/06/12 06:15:50;;;;;;;7.87;2.00;;;19.80;99.90;;;;;;5069190;28;20200;-36
2022/06/12 06:18:18;;;;;;;5.63;2.13;;;19.90;99.90;;;;;;5069383;28;20667;-37
2022/06/12 06:20:44;;;;;;;6.83;2.00;;;20.10;99.90;;;;;;5063947;28;20423;-36
2022/06/12 06:23:10;;;;;;;5.90;2.17;;;20.20;99.90;;;;;;5068825;28;20431;-36
2022/06/12 06:25:38;;;;;;;7.33;2.73;;;20.20;99.90;;;;;;5069488;28;20431;-36
2022/06/12 06:28:04;;;;;;;6.50;2.97;;;20.10;99.90;;;;;;5069207;28;20431;-36
2022/06/12 06:30:30;;;;;;;6.57;3.93;;;20.10;99.90;;;;;;5069658;28;20776;-36
2022/06/12 06:32:57;;;;;;;9.90;3.70;;;20.00;99.90;;;;;;5069844;28;20775;-36
2022/06/12 06:35:24;;;;;;;5.87;2.97;;;20.10;99.90;;;;;;5069515;28;20501;-36
2022/06/12 06:37:50;;;;;;;8.23;2.73;;;20.10;99.90;;;;;;5067801;28;20755;-36
2022/06/12 06:40:17;;;;;;;11.77;2.90;;;20.30;99.90;;;;;;5069311;28;20422;-36
2022/06/12 06:42:43;;;;;;;5.20;2.87;;;20.40;99.90;;;;;;5069736;28;20489;-36
2022/06/12 06:47:56;;;;;;;3.47;2.30;;;20.70;99.90;;;;;;5048739;28;20182;-36
2022/06/12 06:50:22;;;;;;;5.87;2.50;;;20.80;99.90;;;;;;5051015;28;20437;-36
2022/06/12 06:52:47;;;;;;;6.67;2.23;;;20.90;99.80;;;;;;5048296;28;20643;-37
2022/06/12 06:55:13;;;;;;;5.03;2.37;;;21.00;99.30;;;;;;5056179;28;21150;-36
2022/06/12 06:57:43;;;;;;;5.57;2.40;;;21.10;99.90;;;;;;5056331;28;20199;-36
2022/06/12 07:00:12;;;;;;;6.83;2.60;;;21.10;99.50;;;;;;5066283;28;20189;-35
2022/06/12 07:02:39;;;;;;;6.77;1.93;;;21.30;99.50;;;;;;5056578;28;20426;-35
2022/06/12 07:05:05;;;;;;;5.37;2.17;;;21.40;99.20;;;;;;5048773;28;20447;-35
2022/06/12 07:07:33;;;;;;;5.13;2.57;;;21.40;99.30;;;;;;5046699;28;20443;-35
2022/06/12 07:09:58;;;;;;;4.43;2.27;;;21.30;98.80;;;;;;5049062;28;20436;-35
2022/06/12 07:12:24;;;;;;;3.87;2.07;;;21.20;99.70;;;;;;5051590;28;20431;-35
2022/06/12 07:14:50;;;;;;;5.40;2.37;;;21.10;99.90;;;;;;5052873;28;20232;-36
2022/06/12 07:17:15;;;;;;;5.20;2.57;;;21.10;99.40;;;;;;5059787;28;20220;-35
2022/06/12 07:19:41;;;;;;;6.90;2.27;;;21.20;98.30;;;;;;5069197;28;20200;-36
2022/06/12 07:22:07;;;;;;;4.20;2.27;;;21.10;98.10;;;;;;5062841;28;20562;-36
2022/06/12 07:24:33;;;;;;;4.80;2.67;;;21.10;98.00;;;;;;5065498;28;20232;-36
2022/06/12 07:26:59;;;;;;;7.83;2.70;;;21.10;98.50;;;;;;5050168;28;20571;-35
2022/06/12 07:29:25;;;;;;;10.23;3.37;;;21.10;98.60;;;;;;5057956;28;20555;-35
2022/06/12 07:31:50;;;;;;;5.00;2.10;;;21.00;98.80;;;;;;5065366;28;20492;-36
2022/06/12 07:34:17;;;;;;;5.27;2.70;;;21.00;99.60;;;;;;5060010;28;20475;-35
2022/06/12 07:36:46;;;;;;;5.77;2.50;;;21.10;99.70;;;;;;5052735;28;20190;-36
2022/06/12 07:39:16;;;;;;;5.73;2.73;;;21.10;99.80;;;;;;5051642;28;20432;-36
2022/06/12 07:41:43;;;;;;;8.73;3.20;;;21.00;99.10;;;;;;5055640;28;20474;-36
2022/06/12 07:44:10;;;;;;;6.17;2.50;;;21.10;99.60;;;;;;5056429;28;20778;-35
2022/06/12 07:46:36;;;;;;;8.97;2.53;;;21.00;99.90;;;;;;5051770;28;20424;-35
2022/06/12 07:49:01;;;;;;;14.43;3.07;;;21.10;99.90;;;;;;5050738;28;20442;-35
2022/06/12 07:51:28;;;;;;;8.57;2.97;;;21.00;99.90;;;;;;5051638;28;20222;-35
2022/06/12 07:53:53;;;;;;;5.57;2.80;;;20.90;99.90;;;;;;5053929;28;20275;-36
2022/06/12 07:56:22;;;;;;;9.33;2.93;;;21.00;99.90;;;;;;5054889;28;20452;-36
2022/06/12 07:58:47;;;;;;;7.03;2.70;;;21.00;99.90;;;;;;5058102;28;20427;-35
2022/06/12 08:01:17;;;;;;;9.70;2.97;;;21.00;99.90;;;;;;5063650;28;20479;-36
2022/06/12 08:03:43;;;;;;;5.00;2.33;;;21.00;99.90;;;;;;5050923;28;20305;-36
2022/06/12 08:06:10;;;;;;;4.40;2.63;;;21.00;99.90;;;;;;5049770;28;20739;-36
2022/06/12 08:08:36;;;;;;;6.27;2.70;;;21.00;99.90;;;;;;5050540;28;21149;-35
2022/06/12 08:11:02;;;;;;;5.77;2.30;;;21.00;99.90;;;;;;5050553;28;20439;-35
2022/06/12 08:13:29;;;;;;;8.20;2.70;;;20.90;99.90;;;;;;5049012;28;20550;-35
2022/06/12 08:15:57;;;;;;;4.90;2.40;;;21.00;99.90;;;;;;5049610;28;20948;-36
2022/06/12 08:18:23;;;;;;;5.33;2.83;;;21.10;99.90;;;;;;5048723;28;20766;-35
2022/06/12 08:20:54;;;;;;;6.07;2.87;;;21.10;99.90;;;;;;5057035;28;20845;-35
2022/06/12 08:23:27;;;;;;;5.00;2.57;;;21.20;99.90;;;;;;5058792;28;20462;-35
2022/06/12 08:25:59;;;;;;;6.80;3.13;;;21.30;99.90;;;;;;5061982;28;20433;-35
2022/06/12 08:28:28;;;;;;;8.70;3.30;;;21.30;99.90;;;;;;5058012;28;20504;-35
2022/06/12 08:30:54;;;;;;;5.07;2.77;;;21.30;99.90;;;;;;5060656;28;20419;-35
2022/06/12 08:33:20;;;;;;;5.00;2.50;;;21.20;99.50;;;;;;5058275;28;20442;-36
2022/06/12 08:35:46;;;;;;;5.70;2.50;;;21.20;99.90;;;;;;5068943;28;20470;-36
2022/06/12 08:38:12;;;;;;;6.27;2.20;;;21.10;99.70;;;;;;5070569;28;21057;-35
2022/06/12 08:40:48;;;;;;;7.73;3.10;;;21.10;99.90;;;;;;5071453;28;20522;-36
2022/06/12 08:43:26;;;;;;;3.80;2.67;;;21.10;99.80;;;;;;5071237;28;20477;-36
2022/06/12 08:45:55;;;;;;;4.70;2.20;;;21.20;99.80;;;;;;5053457;28;20439;-35
2022/06/12 08:48:24;;;;;;;10.30;3.40;;;21.30;99.60;;;;;;5050520;28;20432;-35
2022/06/12 08:51:15;;;;;;;4.83;2.60;;;21.30;99.10;;;;;;5049970;28;20436;-35
2022/06/12 08:54:10;;;;;;;20.47;3.50;;;21.30;98.90;;;;;;5068657;28;20420;-36
2022/06/12 08:56:54;;;;;;;7.10;2.10;;;21.30;99.20;;;;;;5066312;28;20547;-36
2022/06/12 08:59:34;;;;;;;13.80;3.03;;;21.50;98.50;;;;;;5050060;28;20420;-35
2022/06/12 09:02:09;;;;;;;5.40;2.43;;;21.60;97.70;;;;;;5046965;28;20408;-35
2022/06/12 09:04:35;;;;;;;3.73;2.50;;;21.70;98.50;;;;;;5058970;28;20415;-36
2022/06/12 09:07:13;;;;;;;5.70;1.97;;;21.90;96.50;;;;;;5052677;28;20436;-36
2022/06/12 09:09:52;;;;;;;3.70;1.53;;;22.00;95.60;;;;;;5056229;28;20440;-36
2022/06/12 09:12:20;;;;;;;4.67;1.70;;;22.20;93.50;;;;;;5047037;28;21119;-36
2022/06/12 09:14:59;;;;;;;1.97;1.30;;;22.20;92.10;;;;;;5047825;28;20855;-36
2022/06/12 09:17:51;;;;;;;2.97;1.40;;;22.30;92.10;;;;;;5047656;28;20542;-36
2022/06/12 09:20:49;;;;;;;2.73;1.00;;;22.50;91.40;;;;;;5048196;28;20432;-36
2022/06/12 09:23:21;;;;;;;1.97;0.87;;;22.60;91.50;;;;;;5050216;28;20420;-36
2022/06/12 09:25:51;;;;;;;1.80;0.90;;;22.70;91.10;;;;;;5052017;28;20423;-36
2022/06/12 09:28:23;;;;;;;1.60;1.00;;;22.90;91.00;;;;;;5070051;28;20453;-36
2022/06/12 09:30:57;;;;;;;3.83;1.10;;;23.00;91.10;;;;;;5052670;28;20439;-36
2022/06/12 09:33:52;;;;;;;1.83;0.97;;;23.10;90.00;;;;;;5054460;28;20452;-36
2022/06/12 09:36:44;;;;;;;2.53;0.90;;;23.20;85.80;;;;;;5059227;28;20494;-36
2022/06/12 09:39:24;;;;;;;2.30;1.10;;;23.30;87.00;;;;;;5069257;28;20430;-36
2022/06/12 09:42:22;;;;;;;3.03;0.90;;;23.30;86.00;;;;;;5057476;28;20476;-36
2022/06/12 09:45:01;;;;;;;1.57;0.70;;;23.30;83.20;;;;;;5049370;28;20416;-36
2022/06/12 09:47:53;;;;;;;2.43;0.80;;;23.40;84.40;;;;;;5048236;28;20789;-36
2022/06/12 09:50:40;;;;;;;1.90;0.70;;;23.50;79.20;;;;;;5050534;28;20427;-36
2022/06/12 09:53:25;;;;;;;2.60;0.90;;;23.40;80.30;;;;;;5049533;28;20483;-36
2022/06/12 09:56:04;;;;;;;3.40;0.87;;;23.50;82.30;;;;;;5049785;28;20871;-36
2022/06/12 09:58:35;;;;;;;2.20;1.07;;;23.60;81.50;;;;;;5047539;28;20911;-36
2022/06/12 10:01:08;;;;;;;2.40;1.00;;;23.70;83.00;;;;;;5050719;28;20417;-36
2022/06/12 10:03:57;;;;;;;3.63;1.10;;;23.70;82.10;;;;;;5047273;28;20424;-36
2022/06/12 10:06:32;;;;;;;3.03;1.00;;;23.60;80.20;;;;;;5048820;28;20430;-36
2022/06/12 10:09:19;;;;;;;1.63;1.17;;;23.60;80.00;;;;;;5062489;28;20466;-36
2022/06/12 10:12:05;;;;;;;4.73;1.20;;;23.70;83.40;;;;;;5048426;28;20841;-36
2022/06/12 10:14:41;;;;;;;4.57;1.63;;;23.80;81.20;;;;;;5059352;28;20917;-36
2022/06/12 10:17:18;;;;;;;2.77;0.93;;;23.90;82.10;;;;;;5060728;28;20459;-36
2022/06/12 10:20:14;;;;;;;3.40;1.17;;;23.80;79.50;;;;;;5076088;28;20481;-36
2022/06/12 10:22:47;;;;;;;5.73;1.30;;;23.80;78.20;;;;;;5050488;28;20447;-36
2022/06/12 10:25:17;;;;;;;3.63;1.50;;;23.90;80.00;;;;;;5055346;28;20443;-36
2022/06/12 10:27:46;;;;;;;2.67;1.37;;;24.00;81.50;;;;;;5048189;28;20442;-36
2022/06/12 10:30:47;;;;;;;4.60;1.40;;;24.00;80.20;;;;;;5056300;28;20479;-36
2022/06/12 10:33:21;;;;;;;5.87;1.73;;;24.10;82.70;;;;;;5038524;28;20428;-36
2022/06/12 10:35:58;;;;;;;2.63;1.50;;;24.10;84.30;;;;;;5066074;28;20524;-37
2022/06/12 10:38:27;;;;;;;5.07;1.60;;;24.20;80.20;;;;;;5069112;28;20456;-36
2022/06/12 10:40:56;;;;;;;3.13;1.47;;;24.20;82.80;;;;;;5056087;28;20460;-36
2022/06/12 10:43:28;;;;;;;5.10;2.07;;;24.20;84.50;;;;;;5049359;28;20594;-36
2022/06/12 10:46:19;;;;;;;5.63;2.00;;;24.20;83.70;;;;;;5065256;28;21184;-36
2022/06/12 10:49:05;;;;;;;3.87;1.73;;;24.20;87.10;;;;;;5063596;28;20493;-36
2022/06/12 10:51:38;;;;;;;3.13;2.00;;;24.30;84.70;;;;;;5065889;28;20469;-37
2022/06/12 10:54:20;;;;;;;4.77;1.80;;;24.30;79.50;;;;;;5068450;28;20467;-37
2022/06/12 10:57:11;;;;;;;3.17;1.53;;;24.30;79.50;;;;;;5057977;28;20470;-36
2022/06/12 10:59:44;;;;;;;3.30;1.33;;;24.40;79.70;;;;;;5049047;28;20467;-36
2022/06/12 11:02:37;;;;;;;4.90;1.60;;;24.40;78.80;;;;;;5070644;28;20474;-37
2022/06/12 11:05:28;;;;;;;4.20;1.67;;;24.30;79.70;;;;;;5053554;28;20501;-36
2022/06/12 11:08:19;;;;;;;4.93;1.80;;;24.30;83.30;;;;;;5052380;28;20444;-36
2022/06/12 11:11:03;;;;;;;4.97;1.80;;;24.40;82.00;;;;;;5066912;28;20470;-36
2022/06/12 11:13:46;;;;;;;3.67;1.90;;;24.40;81.10;;;;;;5054317;28;20447;-36
2022/06/12 11:16:23;;;;;;;4.27;2.07;;;24.40;84.00;;;;;;5061076;28;20976;-36
2022/06/12 11:19:06;;;;;;;5.67;2.43;;;24.50;83.20;;;;;;5070956;28;20451;-36
2022/06/12 11:21:46;;;;;;;3.90;1.80;;;24.50;83.20;;;;;;5053335;28;20495;-36
2022/06/12 11:24:15;;;;;;;4.83;2.23;;;24.50;85.80;;;;;;5058689;28;20586;-36
2022/06/12 11:26:56;;;;;;;4.33;2.17;;;24.70;85.30;;;;;;5057252;28;20454;-36
2022/06/12 11:29:27;;;;;;;5.10;2.23;;;24.70;84.40;;;;;;5051952;28;20502;-36
2022/06/12 11:32:20;;;;;;;4.87;1.80;;;24.60;83.30;;;;;;5070040;28;20760;-36
2022/06/12 11:34:52;;;;;;;5.33;2.00;;;24.70;83.40;;;;;;5065885;28;20483;-36
2022/06/12 11:37:34;;;;;;;5.93;2.43;;;24.80;84.30;;;;;;5053816;28;20451;-36
2022/06/12 11:39:59;;;;;;;4.07;1.90;;;24.70;83.50;;;;;;5068872;28;20443;-36
2022/06/12 11:42:58;;;;;;;3.80;2.70;;;24.70;85.50;;;;;;5072023;28;20566;-36
2022/06/12 11:45:26;;;;;;;5.63;1.87;;;24.70;85.70;;;;;;5053162;28;20680;-36
2022/06/12 11:47:55;;;;;;;4.70;2.07;;;24.70;85.30;;;;;;5052198;28;20440;-36
2022/06/12 11:50:29;;;;;;;2.93;1.90;;;24.70;83.60;;;;;;5057579;28;20481;-36
2022/06/12 11:52:58;;;;;;;6.37;1.80;;;24.70;82.10;;;;;;5072124;28;20485;-36
2022/06/12 11:55:38;;;;;;;4.73;1.80;;;24.60;83.00;;;;;;5044731;28;20475;-37
2022/06/12 11:58:42;;;;;;;3.73;1.93;;;24.70;83.60;;;;;;5051772;28;20424;-36
2022/06/12 12:01:30;;;;;;;3.50;2.13;;;24.70;81.70;;;;;;5068137;28;20443;-36
2022/06/12 12:04:14;;;;;;;3.73;1.73;;;24.50;82.30;;;;;;5071897;28;20463;-36
2022/06/12 12:07:01;;;;;;;3.80;1.50;;;24.50;80.80;;;;;;5071198;28;20451;-36
2022/06/12 12:09:45;;;;;;;5.53;2.50;;;24.50;83.90;;;;;;5071563;28;20458;-36
2022/06/12 12:12:26;;;;;;;7.87;2.17;;;24.60;82.40;;;;;;5071109;28;20454;-36
2022/06/12 12:14:54;;;;;;;3.80;2.00;;;24.70;84.80;;;;;;5071559;28;20479;-36
2022/06/12 12:17:27;;;;;;;4.03;1.67;;;24.90;82.80;;;;;;5071044;28;21003;-36
2022/06/12 12:20:04;;;;;;;4.90;2.00;;;24.90;84.00;;;;;;5050106;28;20510;-36
2022/06/12 12:22:36;;;;;;;4.37;2.13;;;24.90;83.20;;;;;;5068559;28;20470;-36
2022/06/12 12:25:36;;;;;;;5.07;2.07;;;25.00;82.40;;;;;;5053842;28;20455;-37
2022/06/12 12:28:14;;;;;;;4.30;2.20;;;25.00;83.70;;;;;;5050795;28;20494;-36
2022/06/12 12:30:42;;;;;;;7.60;2.70;;;24.80;83.40;;;;;;5051921;28;20468;-36
2022/06/12 12:33:16;;;;;;;5.77;1.90;;;24.80;85.90;;;;;;5053261;28;20476;-36
2022/06/12 12:41:14;;;;;;;4.30;2.00;;;25.10;85.70;;;;;;5057232;28;20501;-36
2022/06/12 12:43:52;;;;;;;6.80;2.07;;;25.20;81.80;;;;;;5070925;28;20439;-36
2022/06/12 12:46:19;;;;;;;4.77;2.07;;;25.10;86.10;;;;;;5071158;28;20457;-36
2022/06/12 12:48:48;;;;;;;4.63;2.20;;;25.20;85.70;;;;;;5065663;28;20487;-36
2022/06/12 12:51:33;;;;;;;5.70;2.40;;;25.10;83.30;;;;;;5059952;28;20447;-36
2022/06/12 12:54:10;;;;;;;6.90;2.87;;;25.10;83.20;;;;;;5048508;28;20483;-36
2022/06/12 12:56:41;;;;;;;6.37;2.90;;;25.00;83.70;;;;;;5053669;28;20491;-36
2022/06/12 12:59:10;;;;;;;6.17;2.63;;;24.80;84.00;;;;;;5062360;28;21057;-36
2022/06/12 13:01:39;;;;;;;5.53;2.33;;;24.70;87.60;;;;;;5070715;28;20500;-37
2022/06/12 13:04:23;;;;;;;5.40;2.77;;;24.70;89.80;;;;;;5069224;28;20870;-36
2022/06/12 13:07:15;;;;;;;4.47;2.83;;;24.60;90.40;;;;;;5060886;28;20493;-37
2022/06/12 13:09:55;;;;;;;5.50;2.70;;;24.70;89.20;;;;;;5065134;28;20447;-36
2022/06/12 13:12:36;;;;;;;5.67;2.80;;;24.70;86.60;;;;;;5064925;28;20450;-36
2022/06/12 13:15:24;;;;;;;4.50;2.20;;;24.80;85.80;;;;;;5054606;28;20479;-36
2022/06/12 13:18:23;;;;;;;6.10;2.90;;;24.80;85.60;;;;;;5066492;28;20431;-36
2022/06/12 13:21:10;;;;;;;7.73;3.37;;;25.00;89.00;;;;;;5066589;28;20990;-36
2022/06/12 13:23:57;;;;;;;6.23;2.67;;;25.00;85.20;;;;;;5066345;28;20465;-36
2022/06/12 13:26:25;;;;;;;5.73;2.97;;;25.00;85.40;;;;;;5054335;28;20435;-36
2022/06/12 13:28:58;;;;;;;6.07;2.50;;;25.00;89.50;;;;;;5063636;28;20471;-36
2022/06/12 13:31:24;;;;;;;4.53;2.53;;;25.00;85.30;;;;;;5063754;28;20439;-36
2022/06/12 13:33:59;;;;;;;7.67;3.20;;;24.90;83.40;;;;;;5070101;28;21063;-36
2022/06/12 13:36:27;;;;;;;7.43;2.80;;;24.80;86.00;;;;;;5066384;28;20443;-36
2022/06/12 13:39:06;;;;;;;5.27;3.17;;;24.80;82.60;;;;;;5067002;28;20443;-36